Prestige Ace — H3NG — position and weather

sailwx.info

Track history (hours):
 
Tides and Currents Weather Stations Pressure Air Temp Water Temp Dewpoint Dewpoint Depression Visibility Wind Speed Wind Dir Waves Ship Positions

Prestige Ace

Last reported at 2018-Feb-13 12:55 UTC. Time now 2018-Feb-20 15:59 UTC.
Position N 38°20' E 121°48'.

Length 200 m; draft 8.2 m.

Type: Cargo ship. MMSI: 355745000.

Date/timePositionNaut miles runAvg speedWind from/ knotsBaromVisibWave heightAir tempDewpointWater temp
2018-Feb-13 12:55N 38°20' E 121°48'1012.3
2018-Feb-13 12:06N 38°17' E 122°00'43213.9
2018-Feb-12 05:08N 31°06' E 122°19'214.8
2018-Feb-12 05:00N 31°07' E 122°17'915.0
2018-Feb-12 04:25N 31°12' E 122°09'614.4
2018-Feb-12 04:00N 31°14' E 122°02'714.9
2018-Feb-12 03:30N 31°16' E 121°54'713.6
2018-Feb-12 03:00N 31°18' E 121°46'5 0.4
2018-Feb-11 14:35N 31°19' E 121°41'1 2.7
2018-Feb-11 14:13N 31°20' E 121°42'311.3
2018-Feb-11 14:00N 31°19' E 121°44'1 2.7
2018-Feb-11 13:27N 31°19' E 121°46'3 4.9
2018-Feb-11 12:56N 31°17' E 121°49'4 9.7
2018-Feb-11 12:28N 31°16' E 121°54'4 9.2
2018-Feb-11 12:00N 31°15' E 121°58'510.4
2018-Feb-11 11:29N 31°14' E 122°05'5 9.4
2018-Feb-11 11:00N 31°12' E 122°09'510.2
2018-Feb-11 10:30N 31°09' E 122°14'4 9.0
2018-Feb-11 10:00N 31°06' E 122°19'5 9.0
2018-Feb-11 09:30N 31°06' E 122°24'5 3.7
2018-Feb-11 08:06N 31°10' E 122°28'  
2018-Feb-05 14:53N 22°19' E 114°07'1 0.1
2018-Feb-05 10:11N 22°19' E 114°07'  
Track history (hours):
 
Tides and Currents Weather Stations Pressure Air Temp Water Temp Dewpoint Dewpoint Depression Visibility Wind Speed Wind Dir Waves Ship Positions

Prestige Ace

Last reported at 2018-Feb-13 12:55 UTC. Time now 2018-Feb-20 15:59 UTC.
Position N 38°20' E 121°48'.

Length 200 m; draft 8.2 m.

Type: Cargo ship. MMSI: 355745000.

Date/timePositionNaut miles runAvg speedWind from/ knotsBaromVisibWave heightAir tempDewpointWater temp
2018-Feb-13 12:55N 38°20' E 121°48'1012.3
2018-Feb-13 12:06N 38°17' E 122°00'43213.9
2018-Feb-12 05:08N 31°06' E 122°19'214.8
2018-Feb-12 05:00N 31°07' E 122°17'915.0
2018-Feb-12 04:25N 31°12' E 122°09'614.4
2018-Feb-12 04:00N 31°14' E 122°02'714.9
2018-Feb-12 03:30N 31°16' E 121°54'713.6
2018-Feb-12 03:00N 31°18' E 121°46'5 0.4
2018-Feb-11 14:35N 31°19' E 121°41'1 2.7
2018-Feb-11 14:13N 31°20' E 121°42'311.3
2018-Feb-11 14:00N 31°19' E 121°44'1 2.7
2018-Feb-11 13:27N 31°19' E 121°46'3 4.9
2018-Feb-11 12:56N 31°17' E 121°49'4 9.7
2018-Feb-11 12:28N 31°16' E 121°54'4 9.2
2018-Feb-11 12:00N 31°15' E 121°58'510.4
2018-Feb-11 11:29N 31°14' E 122°05'5 9.4
2018-Feb-11 11:00N 31°12' E 122°09'510.2
2018-Feb-11 10:30N 31°09' E 122°14'4 9.0
2018-Feb-11 10:00N 31°06' E 122°19'5 9.0
2018-Feb-11 09:30N 31°06' E 122°24'5 3.7
2018-Feb-11 08:06N 31°10' E 122°28'  
2018-Feb-05 14:53N 22°19' E 114°07'1 0.1
2018-Feb-05 10:11N 22°19' E 114°07'  

Dump ship's entire track history